Time;durP1;ratioP1;P1;durP2;ratioP2;P2;SDS_P1;SDS_P2;PMS_P1;PMS_P2;Temp;Humidity;BMP_temperature;BMP_pressure;BME280_temperature;BME280_humidity;BME280_pressure;Samples;Min_cycle;Max_cycle;Signal;HPM_P1;HPM_P2
2023/12/22 00:01:19;;;;;;;6.60;2.17;;;4.10;99.90;;;;;;5032405;28;20018;-77
2023/12/22 00:03:49;;;;;;;5.53;1.92;;;4.10;99.90;;;;;;5032989;28;20049;-78
2023/12/22 00:06:15;;;;;;;4.95;2.80;;;4.10;99.90;;;;;;5032386;28;20488;-78
2023/12/22 00:08:41;;;;;;;8.80;2.20;;;4.10;99.90;;;;;;5033132;28;20030;-79
2023/12/22 00:11:06;;;;;;;5.47;2.60;;;4.10;99.90;;;;;;5033018;28;20160;-77
2023/12/22 00:13:33;;;;;;;6.07;2.15;;;4.10;99.90;;;;;;5046902;28;20021;-78
2023/12/22 00:16:00;;;;;;;4.47;2.90;;;4.10;99.90;;;;;;5033441;28;20034;-78
2023/12/22 00:18:26;;;;;;;7.15;2.95;;;4.10;99.90;;;;;;5031847;28;20509;-78
2023/12/22 00:20:51;;;;;;;9.48;2.25;;;4.10;99.90;;;;;;5031997;28;20500;-78
2023/12/22 00:23:17;;;;;;;8.20;2.17;;;4.10;99.90;;;;;;5032597;28;20084;-78
2023/12/22 00:25:43;;;;;;;7.13;2.50;;;4.10;99.90;;;;;;5033074;28;20501;-78
2023/12/22 00:28:09;;;;;;;7.90;2.65;;;4.10;99.90;;;;;;5031516;28;20025;-77
2023/12/22 00:30:34;;;;;;;11.13;2.92;;;4.10;99.90;;;;;;5033011;28;20057;-79
2023/12/22 00:33:00;;;;;;;11.52;3.95;;;4.00;99.90;;;;;;5032769;28;20049;-77
2023/12/22 00:35:25;;;;;;;7.38;3.22;;;4.00;99.90;;;;;;5032793;28;20091;-77
2023/12/22 00:37:52;;;;;;;10.50;2.60;;;4.00;99.90;;;;;;5031461;28;20060;-79
2023/12/22 00:40:18;;;;;;;7.88;2.78;;;4.00;99.90;;;;;;5031737;28;20017;-79
2023/12/22 00:42:44;;;;;;;10.30;2.20;;;4.00;99.90;;;;;;5032336;28;20426;-78
2023/12/22 00:45:10;;;;;;;6.28;2.00;;;3.90;99.90;;;;;;5031531;28;20028;-77
2023/12/22 00:47:36;;;;;;;6.88;2.33;;;3.90;99.90;;;;;;5031063;28;20379;-78
2023/12/22 00:50:02;;;;;;;7.28;2.25;;;4.00;99.90;;;;;;5031609;28;20035;-79
2023/12/22 00:52:28;;;;;;;5.65;2.92;;;4.00;99.90;;;;;;5032507;28;20022;-78
2023/12/22 00:54:54;;;;;;;6.70;2.35;;;4.00;99.90;;;;;;5032746;28;20044;-79
2023/12/22 00:57:19;;;;;;;4.63;2.38;;;4.00;99.90;;;;;;5031365;28;20026;-78
2023/12/22 00:59:47;;;;;;;3.53;1.88;;;4.00;99.90;;;;;;5031379;28;20091;-77
2023/12/22 01:02:17;;;;;;;4.82;1.77;;;4.00;99.90;;;;;;5032553;28;20014;-77
2023/12/22 01:04:43;;;;;;;9.02;1.90;;;4.00;99.90;;;;;;5032686;28;20026;-79
2023/12/22 01:07:09;;;;;;;2.13;1.80;;;3.90;99.90;;;;;;5031283;28;20360;-79
2023/12/22 01:09:37;;;;;;;7.30;2.00;;;3.80;99.90;;;;;;5031267;28;20018;-79
2023/12/22 01:12:03;;;;;;;3.55;1.42;;;3.80;99.90;;;;;;5032397;28;20060;-78
2023/12/22 01:14:30;;;;;;;6.60;2.05;;;3.70;99.90;;;;;;5033163;28;20022;-78
2023/12/22 01:16:56;;;;;;;4.63;1.50;;;3.70;99.90;;;;;;5036407;28;20029;-78
2023/12/22 01:19:22;;;;;;;5.93;2.30;;;3.60;99.90;;;;;;5027081;28;20390;-78
2023/12/22 01:21:47;;;;;;;9.68;1.90;;;3.50;99.90;;;;;;5035214;28;20104;-78
2023/12/22 01:24:13;;;;;;;3.75;2.20;;;3.60;99.90;;;;;;5036131;28;20018;-78
2023/12/22 01:26:39;;;;;;;8.57;2.95;;;3.60;99.90;;;;;;5035077;28;20021;-78
2023/12/22 01:29:04;;;;;;;3.45;1.77;;;3.50;99.90;;;;;;5036265;28;20021;-78
2023/12/22 01:31:30;;;;;;;6.10;1.98;;;3.60;99.90;;;;;;5036167;28;20025;-79
2023/12/22 01:33:56;;;;;;;8.20;3.13;;;3.60;99.90;;;;;;5034961;28;20041;-77
2023/12/22 01:36:21;;;;;;;10.70;2.10;;;3.50;99.90;;;;;;5036155;28;20095;-77
2023/12/22 01:38:47;;;;;;;13.10;3.03;;;3.60;99.90;;;;;;5034396;28;20025;-77
2023/12/22 01:41:13;;;;;;;4.43;1.67;;;3.60;99.90;;;;;;5035051;28;20009;-79
2023/12/22 01:43:39;;;;;;;3.65;1.70;;;3.60;99.90;;;;;;5034548;28;20033;-79
2023/12/22 01:46:07;;;;;;;6.10;2.08;;;3.60;99.90;;;;;;5036338;28;20471;-79
2023/12/22 01:48:34;;;;;;;6.93;2.00;;;3.60;99.90;;;;;;5035831;28;20021;-78
2023/12/22 01:51:01;;;;;;;9.90;2.22;;;3.60;99.90;;;;;;5034921;28;20026;-78
2023/12/22 01:53:27;;;;;;;6.68;2.45;;;3.60;99.90;;;;;;5034616;28;20021;-77
2023/12/22 01:55:54;;;;;;;5.20;1.90;;;3.60;99.90;;;;;;5035693;28;20026;-77
2023/12/22 01:58:20;;;;;;;6.18;1.90;;;3.60;99.90;;;;;;5035959;28;20041;-77
2023/12/22 02:00:46;;;;;;;3.28;1.92;;;3.50;99.90;;;;;;5035209;28;20025;-77
2023/12/22 02:03:12;;;;;;;10.25;2.15;;;3.60;99.90;;;;;;5035833;28;20479;-79
2023/12/22 02:05:46;;;;;;;7.10;1.95;;;3.50;99.90;;;;;;5035528;28;20022;-78
2023/12/22 02:08:12;;;;;;;9.05;2.13;;;3.60;99.90;;;;;;5035683;28;20438;-77
2023/12/22 02:10:38;;;;;;;7.30;2.58;;;3.50;99.90;;;;;;5035531;28;20076;-77
2023/12/22 02:13:05;;;;;;;5.55;1.90;;;3.50;99.90;;;;;;5034398;28;20468;-77
2023/12/22 02:15:32;;;;;;;5.57;2.22;;;3.50;99.90;;;;;;5033998;28;20021;-78
2023/12/22 02:18:12;;;;;;;5.95;2.08;;;3.50;99.90;;;;;;5035551;28;20109;-78
2023/12/22 02:20:39;;;;;;;5.90;2.42;;;3.50;99.90;;;;;;5034107;28;20029;-78
2023/12/22 02:23:04;;;;;;;6.75;2.10;;;3.50;99.90;;;;;;5035446;28;20017;-78
2023/12/22 02:25:30;;;;;;;5.13;2.15;;;3.40;99.90;;;;;;5035606;28;20037;-78
2023/12/22 02:28:07;;;;;;;7.10;2.53;;;3.40;99.90;;;;;;5033888;28;20033;-78
2023/12/22 02:30:39;;;;;;;6.60;2.58;;;3.40;99.90;;;;;;5035159;28;20064;-78
2023/12/22 02:33:06;;;;;;;7.43;2.73;;;3.30;99.90;;;;;;5033692;28;20079;-78
2023/12/22 02:35:35;;;;;;;7.72;2.83;;;3.30;99.90;;;;;;5033833;28;20793;-78
2023/12/22 02:38:03;;;;;;;6.25;2.63;;;3.30;99.90;;;;;;5034897;28;20021;-79
2023/12/22 02:40:30;;;;;;;8.40;2.35;;;3.40;99.90;;;;;;5033814;28;20021;-78
2023/12/22 02:42:56;;;;;;;8.93;2.83;;;3.40;99.90;;;;;;5033732;28;20040;-79
2023/12/22 02:45:21;;;;;;;6.65;2.60;;;3.40;99.90;;;;;;5034954;28;20476;-79
2023/12/22 02:47:47;;;;;;;7.72;2.92;;;3.40;99.90;;;;;;5033512;28;20025;-79
2023/12/22 02:50:14;;;;;;;6.80;2.08;;;3.40;99.90;;;;;;5033797;28;20033;-78
2023/12/22 02:52:40;;;;;;;7.43;2.40;;;3.30;99.90;;;;;;5033529;28;20037;-77
2023/12/22 02:55:06;;;;;;;12.15;3.58;;;3.20;99.90;;;;;;5033728;28;20037;-79
2023/12/22 02:57:32;;;;;;;7.53;2.30;;;3.20;99.90;;;;;;5033108;28;20025;-78
2023/12/22 02:59:58;;;;;;;3.85;2.53;;;3.30;99.90;;;;;;5033698;28;20048;-78
2023/12/22 03:02:24;;;;;;;6.63;2.33;;;3.30;99.90;;;;;;5033389;28;20029;-78
2023/12/22 03:04:49;;;;;;;7.90;2.55;;;3.20;99.90;;;;;;5034863;28;20025;-78
2023/12/22 03:07:15;;;;;;;5.97;2.97;;;3.20;99.90;;;;;;5034476;28;20553;-77
2023/12/22 03:09:42;;;;;;;5.82;3.50;;;3.20;99.90;;;;;;5033246;28;20529;-77
2023/12/22 03:12:09;;;;;;;5.32;2.90;;;3.20;99.90;;;;;;5034385;28;20043;-77
2023/12/22 03:14:35;;;;;;;4.50;2.80;;;3.20;99.90;;;;;;5033364;28;20025;-78
2023/12/22 03:17:01;;;;;;;5.65;3.10;;;3.10;99.90;;;;;;5032992;28;20038;-79
2023/12/22 03:19:27;;;;;;;5.13;2.92;;;3.10;99.90;;;;;;5033327;28;20075;-78
2023/12/22 03:21:53;;;;;;;5.45;2.58;;;3.00;99.90;;;;;;5032954;28;20483;-78
2023/12/22 03:24:19;;;;;;;7.35;2.90;;;2.80;99.90;;;;;;5034437;28;20628;-76
2023/12/22 03:26:45;;;;;;;12.25;3.10;;;2.70;99.90;;;;;;5033972;28;20029;-77
2023/12/22 03:29:11;;;;;;;11.32;4.07;;;2.70;99.90;;;;;;5033107;28;20028;-78
2023/12/22 03:31:37;;;;;;;8.57;5.53;;;2.60;99.90;;;;;;5032516;28;20041;-79
2023/12/22 03:34:02;;;;;;;10.30;4.20;;;2.50;99.90;;;;;;5033056;28;20017;-78
2023/12/22 03:36:28;;;;;;;6.68;3.90;;;2.50;99.90;;;;;;5032565;28;20033;-77
2023/12/22 03:38:54;;;;;;;5.97;3.08;;;2.50;99.90;;;;;;5033591;28;20032;-77
2023/12/22 03:41:19;;;;;;;8.77;2.47;;;2.50;99.90;;;;;;5031857;28;20037;-77
2023/12/22 03:43:45;;;;;;;8.25;3.22;;;2.60;99.90;;;;;;5033877;28;20498;-78
2023/12/22 03:46:10;;;;;;;5.43;2.45;;;2.60;99.90;;;;;;5033954;28;20021;-78
2023/12/22 03:48:36;;;;;;;7.00;2.53;;;2.60;99.90;;;;;;5033806;28;20026;-79
2023/12/22 03:51:02;;;;;;;9.10;2.20;;;2.60;99.90;;;;;;5033600;28;20021;-79
2023/12/22 03:53:27;;;;;;;11.43;2.70;;;2.60;99.90;;;;;;5032505;28;20018;-79
2023/12/22 03:55:53;;;;;;;7.95;3.70;;;2.70;99.90;;;;;;5032186;28;20753;-79
2023/12/22 03:58:19;;;;;;;7.85;2.03;;;2.70;99.90;;;;;;5033806;28;20053;-79
2023/12/22 04:00:44;;;;;;;8.57;2.05;;;2.70;99.90;;;;;;5032208;28;20096;-79
2023/12/22 04:03:10;;;;;;;7.03;2.53;;;2.70;99.90;;;;;;5033643;28;20033;-79
2023/12/22 04:05:35;;;;;;;5.78;2.30;;;2.70;99.90;;;;;;5032161;28;20014;-78
2023/12/22 04:08:01;;;;;;;4.50;2.80;;;2.70;99.90;;;;;;5032352;28;20021;-77
2023/12/22 04:10:27;;;;;;;11.50;2.40;;;2.70;99.90;;;;;;5033463;28;20021;-79
2023/12/22 04:12:52;;;;;;;10.70;2.53;;;2.60;99.90;;;;;;5033373;28;20052;-77
2023/12/22 04:15:18;;;;;;;9.88;2.42;;;2.60;99.90;;;;;;5031915;28;20368;-79
2023/12/22 04:17:44;;;;;;;8.98;2.45;;;2.60;99.30;;;;;;5032056;28;20037;-79
2023/12/22 04:20:09;;;;;;;3.63;1.95;;;2.60;98.70;;;;;;5033050;28;20029;-77
2023/12/22 04:22:35;;;;;;;6.07;2.60;;;2.60;97.80;;;;;;5032002;28;20030;-79
2023/12/22 04:25:01;;;;;;;8.65;1.63;;;2.60;93.10;;;;;;5033120;28;20018;-77
2023/12/22 04:27:26;;;;;;;5.38;2.42;;;2.60;92.70;;;;;;5031672;28;20494;-77
2023/12/22 04:29:52;;;;;;;7.05;3.30;;;2.50;93.10;;;;;;5032857;28;20483;-77
2023/12/22 04:32:17;;;;;;;4.75;2.17;;;2.50;95.10;;;;;;5033126;28;20041;-77
2023/12/22 04:34:43;;;;;;;10.98;3.90;;;2.50;96.70;;;;;;5032848;28;20032;-77
2023/12/22 04:37:09;;;;;;;8.77;3.42;;;2.50;97.60;;;;;;5033096;28;20371;-78
2023/12/22 04:39:35;;;;;;;9.35;2.20;;;2.40;99.40;;;;;;5031482;28;20501;-77
2023/12/22 04:42:00;;;;;;;6.55;2.33;;;2.40;99.90;;;;;;5031625;28;20013;-79
2023/12/22 04:44:26;;;;;;;10.13;2.53;;;2.40;99.90;;;;;;5032807;28;20029;-79
2023/12/22 04:46:52;;;;;;;6.28;2.30;;;2.40;99.90;;;;;;5031477;28;20028;-79
2023/12/22 04:49:18;;;;;;;5.47;1.80;;;2.00;99.90;;;;;;5031861;28;20033;-77
2023/12/22 04:51:44;;;;;;;3.17;1.55;;;1.60;99.90;;;;;;5031416;28;20075;-79
2023/12/22 04:54:09;;;;;;;7.03;1.92;;;1.20;99.90;;;;;;5031443;28;20021;-77
2023/12/22 04:56:35;;;;;;;9.82;2.00;;;0.90;99.90;;;;;;5031399;28;20037;-77
2023/12/22 04:59:00;;;;;;;4.25;1.80;;;0.80;99.90;;;;;;5032566;28;20040;-77
2023/12/22 05:01:26;;;;;;;4.10;1.92;;;0.70;99.90;;;;;;5032820;28;20026;-79
2023/12/22 05:03:53;;;;;;;4.15;1.55;;;0.60;99.90;;;;;;5031263;28;20393;-77
2023/12/22 05:06:19;;;;;;;2.50;1.42;;;0.50;99.90;;;;;;5031489;28;20014;-77
2023/12/22 05:08:46;;;;;;;2.38;1.50;;;0.50;99.90;;;;;;5031148;28;20032;-77
2023/12/22 05:11:12;;;;;;;8.20;2.03;;;0.40;99.90;;;;;;5031387;28;20024;-79
2023/12/22 05:13:37;;;;;;;7.50;2.03;;;0.30;99.90;;;;;;5021458;28;20479;-79
2023/12/22 05:16:04;;;;;;;4.45;1.58;;;0.30;99.90;;;;;;5046202;28;20033;-78
2023/12/22 05:18:30;;;;;;;2.72;1.60;;;0.20;99.90;;;;;;5046253;28;20359;-78
2023/12/22 05:20:55;;;;;;;5.57;1.52;;;0.10;99.90;;;;;;5045829;28;20032;-79
2023/12/22 05:23:21;;;;;;;6.28;2.47;;;0.10;99.90;;;;;;5045524;28;20039;-79
2023/12/22 05:25:47;;;;;;;5.10;1.80;;;0.10;99.90;;;;;;5042300;28;20100;-78
2023/12/22 05:28:13;;;;;;;3.38;1.80;;;0.00;99.90;;;;;;5032346;28;20049;-78
2023/12/22 05:30:38;;;;;;;13.52;2.17;;;0.00;99.90;;;;;;5050986;28;20021;-79
2023/12/22 05:33:04;;;;;;;4.65;1.70;;;0.00;99.90;;;;;;5044074;28;20518;-79
2023/12/22 05:35:30;;;;;;;6.53;3.28;;;0.00;99.90;;;;;;5048479;28;20033;-78
2023/12/22 05:37:55;;;;;;;5.40;1.88;;;0.00;99.90;;;;;;5046593;28;20014;-79
2023/12/22 05:40:21;;;;;;;4.20;1.70;;;0.00;99.90;;;;;;5046500;28;20375;-78
2023/12/22 05:42:46;;;;;;;5.70;2.00;;;0.00;99.90;;;;;;5046443;28;20586;-79
2023/12/22 05:45:13;;;;;;;6.35;1.67;;;0.00;99.90;;;;;;5046737;28;20024;-79
2023/12/22 05:47:39;;;;;;;4.20;2.63;;;0.00;99.90;;;;;;5044740;28;20018;-78
2023/12/22 05:50:05;;;;;;;3.65;1.60;;;0.00;99.90;;;;;;5040043;28;20033;-80
2023/12/22 05:52:31;;;;;;;9.65;2.67;;;0.00;99.90;;;;;;5030882;28;20022;-79
2023/12/22 05:54:57;;;;;;;4.10;2.13;;;0.00;99.90;;;;;;5032926;28;20051;-79
2023/12/22 05:57:25;;;;;;;3.72;2.90;;;-0.10;99.90;;;;;;5033261;28;20021;-78
2023/12/22 05:59:50;;;;;;;4.10;1.70;;;-0.10;99.90;;;;;;5031056;28;20021;-79
2023/12/22 06:02:16;;;;;;;11.05;2.33;;;-0.10;99.90;;;;;;5030961;28;20398;-77
2023/12/22 06:04:42;;;;;;;11.60;2.40;;;0.00;99.90;;;;;;5033057;28;20030;-77
2023/12/22 06:07:07;;;;;;;10.20;2.28;;;-0.10;99.90;;;;;;5033307;28;20048;-76
2023/12/22 06:09:33;;;;;;;6.07;3.28;;;0.00;99.90;;;;;;5033497;28;20167;-77
2023/12/22 06:11:58;;;;;;;12.35;2.60;;;0.00;99.90;;;;;;5033744;28;20017;-77
2023/12/22 06:14:24;;;;;;;8.95;3.30;;;0.00;99.90;;;;;;5033735;28;20028;-76
2023/12/22 06:16:50;;;;;;;4.57;2.42;;;-0.10;99.90;;;;;;5031381;28;20490;-77
2023/12/22 06:19:16;;;;;;;5.28;2.38;;;0.00;99.90;;;;;;5034494;28;20021;-77
2023/12/22 06:21:42;;;;;;;9.07;2.92;;;0.00;99.90;;;;;;5035042;28;20033;-78
2023/12/22 06:24:08;;;;;;;5.28;2.08;;;0.00;99.90;;;;;;5035051;28;20033;-77
2023/12/22 06:26:34;;;;;;;8.75;2.67;;;0.00;99.90;;;;;;5033110;28;20462;-79
2023/12/22 06:28:59;;;;;;;10.38;2.22;;;0.00;99.90;;;;;;5040319;28;20056;-78
2023/12/22 06:31:25;;;;;;;12.32;2.92;;;0.10;99.90;;;;;;5037828;28;20021;-78
2023/12/22 06:33:51;;;;;;;5.22;1.70;;;0.10;99.90;;;;;;5037836;28;20155;-79
2023/12/22 06:36:24;;;;;;;7.10;2.20;;;0.10;99.90;;;;;;5035983;28;20030;-78
2023/12/22 06:38:50;;;;;;;7.72;2.08;;;0.10;99.90;;;;;;5032924;28;20037;-78
2023/12/22 06:41:20;;;;;;;6.70;2.67;;;0.10;99.90;;;;;;5033799;28;20025;-77
2023/12/22 06:43:45;;;;;;;3.10;2.17;;;0.10;99.90;;;;;;5034490;28;20025;-79
2023/12/22 06:46:18;;;;;;;7.32;2.47;;;0.10;99.90;;;;;;5033604;28;20475;-79
2023/12/22 06:48:45;;;;;;;8.02;2.65;;;0.10;99.90;;;;;;5034646;28;20132;-79
2023/12/22 06:51:27;;;;;;;7.63;2.22;;;0.00;99.90;;;;;;5033776;28;20028;-80
2023/12/22 06:53:57;;;;;;;6.60;2.70;;;0.00;99.90;;;;;;5033690;28;20377;-79
2023/12/22 06:56:26;;;;;;;5.50;2.05;;;0.00;99.90;;;;;;5032747;28;20048;-79
2023/12/22 06:58:53;;;;;;;5.18;1.98;;;0.00;99.90;;;;;;5032554;28;20021;-79
2023/12/22 07:01:25;;;;;;;5.07;2.30;;;0.00;99.90;;;;;;5031029;28;20017;-77
2023/12/22 07:03:51;;;;;;;11.48;3.28;;;0.00;99.90;;;;;;5030561;28;20378;-79
2023/12/22 07:06:17;;;;;;;6.90;2.40;;;0.10;99.90;;;;;;5029416;28;20116;-79
2023/12/22 07:09:17;;;;;;;11.20;2.95;;;0.20;99.90;;;;;;5031112;28;20079;-79
2023/12/22 07:11:45;;;;;;;7.88;3.08;;;0.20;99.90;;;;;;5030377;28;20037;-79
2023/12/22 07:14:11;;;;;;;4.70;2.30;;;0.20;99.90;;;;;;5031408;28;20029;-79
2023/12/22 07:16:37;;;;;;;8.27;3.28;;;0.30;99.90;;;;;;5031068;28;20041;-79
2023/12/22 07:19:06;;;;;;;7.50;3.70;;;0.20;99.90;;;;;;5032651;28;20022;-78
2023/12/22 07:21:31;;;;;;;8.95;3.10;;;0.30;99.90;;;;;;5032270;28;20083;-79
2023/12/22 07:24:00;;;;;;;11.13;4.38;;;0.30;99.90;;;;;;5031233;28;20637;-78
2023/12/22 07:26:26;;;;;;;10.93;3.20;;;0.30;99.90;;;;;;5032192;28;20021;-79
2023/12/22 07:28:55;;;;;;;9.13;4.00;;;0.40;99.90;;;;;;5031477;28;20482;-79
2023/12/22 07:31:21;;;;;;;9.85;3.00;;;0.40;99.90;;;;;;5032796;28;20025;-78
2023/12/22 07:33:47;;;;;;;8.95;3.03;;;0.40;99.90;;;;;;5033952;28;20080;-79
2023/12/22 07:36:13;;;;;;;7.82;3.25;;;0.40;99.90;;;;;;5032912;28;20041;-78
2023/12/22 07:38:39;;;;;;;13.50;5.20;;;0.50;99.90;;;;;;5032627;28;20024;-78
2023/12/22 07:41:05;;;;;;;14.32;6.93;;;0.50;99.90;;;;;;5034207;28;20477;-79
2023/12/22 07:43:31;;;;;;;15.77;6.45;;;0.60;99.90;;;;;;5033899;28;20028;-79
2023/12/22 07:45:57;;;;;;;9.63;4.28;;;0.60;99.90;;;;;;5032544;28;20022;-79
2023/12/22 07:48:23;;;;;;;13.82;4.40;;;0.70;99.90;;;;;;5034070;28;20026;-79
2023/12/22 07:50:49;;;;;;;11.05;4.63;;;0.70;99.90;;;;;;5032427;28;20383;-79
2023/12/22 07:53:15;;;;;;;13.75;3.83;;;0.70;99.90;;;;;;5032620;28;20022;-78
2023/12/22 07:55:41;;;;;;;13.32;3.67;;;0.80;99.90;;;;;;5032639;28;20076;-78
2023/12/22 07:58:07;;;;;;;12.38;4.70;;;0.70;99.90;;;;;;5033789;28;20026;-78
2023/12/22 08:00:33;;;;;;;9.93;3.88;;;0.70;99.90;;;;;;5033529;28;20041;-79
2023/12/22 08:03:00;;;;;;;13.05;4.45;;;0.70;99.90;;;;;;5032253;28;20440;-79
2023/12/22 08:05:25;;;;;;;11.73;5.18;;;0.80;99.90;;;;;;5032025;28;20033;-79
2023/12/22 08:07:51;;;;;;;13.55;5.32;;;0.80;99.90;;;;;;5032055;28;20021;-79
2023/12/22 08:10:17;;;;;;;18.55;6.40;;;0.80;99.90;;;;;;5033363;28;20029;-79
2023/12/22 08:12:43;;;;;;;18.38;6.80;;;0.80;99.90;;;;;;5031174;28;20033;-79
2023/12/22 08:15:12;;;;;;;19.17;6.88;;;0.80;99.90;;;;;;5032923;28;20430;-79
2023/12/22 08:17:37;;;;;;;17.15;7.28;;;0.90;99.90;;;;;;5033203;28;20025;-78
2023/12/22 08:20:08;;;;;;;15.02;6.38;;;0.90;99.90;;;;;;5033108;28;20104;-78
2023/12/22 08:22:34;;;;;;;17.73;6.68;;;1.00;99.90;;;;;;5032874;28;20036;-78
2023/12/22 08:24:59;;;;;;;18.42;6.25;;;1.00;99.90;;;;;;5032840;28;20033;-78
2023/12/22 08:27:25;;;;;;;15.27;5.90;;;1.00;99.90;;;;;;5032683;28;20430;-79
2023/12/22 08:29:50;;;;;;;10.77;5.40;;;1.00;99.90;;;;;;5031455;28;20029;-79
2023/12/22 08:32:16;;;;;;;7.22;5.32;;;1.10;99.90;;;;;;5031699;28;20037;-79
2023/12/22 08:34:42;;;;;;;18.77;5.80;;;1.10;99.90;;;;;;5032450;28;20026;-79
2023/12/22 08:37:08;;;;;;;15.85;6.00;;;1.20;99.90;;;;;;5031061;28;20501;-79
2023/12/22 08:39:33;;;;;;;34.22;14.05;;;1.20;99.90;;;;;;5031370;28;20568;-78
2023/12/22 08:41:59;;;;;;;65.63;25.65;;;1.20;99.90;;;;;;5033075;28;20021;-79
2023/12/22 08:44:25;;;;;;;25.25;10.65;;;1.20;99.90;;;;;;5032745;28;20100;-79
2023/12/22 08:46:50;;;;;;;51.17;21.42;;;1.20;99.90;;;;;;5032904;28;20471;-79
2023/12/22 08:49:16;;;;;;;62.60;21.92;;;1.20;99.90;;;;;;5031266;28;20061;-79
2023/12/22 08:51:42;;;;;;;27.15;9.43;;;1.20;99.90;;;;;;5032751;28;20024;-79
2023/12/22 08:54:08;;;;;;;22.73;8.73;;;1.20;99.90;;;;;;5032701;28;20022;-79
2023/12/22 08:56:35;;;;;;;84.80;28.02;;;1.10;99.90;;;;;;5031341;28;20120;-79
2023/12/22 08:59:01;;;;;;;130.18;42.95;;;1.10;99.90;;;;;;5032792;28;20025;-78
2023/12/22 09:01:27;;;;;;;52.72;17.42;;;1.10;99.90;;;;;;5031143;28;20048;-78
2023/12/22 09:03:52;;;;;;;25.52;10.93;;;1.00;99.90;;;;;;5032680;28;20029;-78
2023/12/22 09:06:20;;;;;;;73.97;22.02;;;1.10;99.90;;;;;;5032689;28;20049;-78
2023/12/22 09:08:46;;;;;;;24.90;10.50;;;1.10;99.90;;;;;;5032413;28;20018;-78
2023/12/22 09:11:14;;;;;;;94.35;30.33;;;1.20;99.90;;;;;;5048072;28;20025;-78
2023/12/22 09:13:41;;;;;;;224.40;68.55;;;1.20;99.90;;;;;;5031095;28;20084;-78
2023/12/22 09:16:08;;;;;;;136.15;40.03;;;1.20;99.90;;;;;;5031362;28;20447;-78
2023/12/22 09:18:33;;;;;;;111.97;32.63;;;1.10;99.90;;;;;;5030997;28;20491;-78
2023/12/22 09:21:00;;;;;;;167.57;51.10;;;1.00;99.90;;;;;;5031200;28;20026;-79
2023/12/22 09:23:25;;;;;;;32.25;12.77;;;0.80;99.90;;;;;;5031059;28;20030;-78
2023/12/22 09:25:51;;;;;;;34.45;13.32;;;0.60;99.90;;;;;;5031281;28;20026;-78
2023/12/22 09:28:17;;;;;;;31.65;13.02;;;0.60;99.90;;;;;;5047519;28;20025;-78
2023/12/22 09:30:42;;;;;;;52.20;19.70;;;0.50;99.90;;;;;;5031032;28;20075;-79
2023/12/22 09:33:12;;;;;;;26.58;12.18;;;0.40;99.90;;;;;;5030787;28;20160;-79
2023/12/22 09:35:41;;;;;;;44.38;18.08;;;0.40;99.90;;;;;;5032192;28;20072;-78
2023/12/22 09:38:12;;;;;;;21.67;8.90;;;0.40;99.90;;;;;;5034824;28;20013;-79
2023/12/22 09:40:39;;;;;;;22.02;8.90;;;0.30;99.90;;;;;;5035083;28;20040;-79
2023/12/22 09:43:06;;;;;;;38.25;15.38;;;0.40;99.90;;;;;;5034693;28;20029;-78
2023/12/22 09:45:38;;;;;;;20.92;9.93;;;0.30;99.90;;;;;;5036229;28;20059;-79
2023/12/22 09:48:06;;;;;;;22.73;9.48;;;0.30;99.90;;;;;;5035859;28;20021;-78
2023/12/22 09:50:33;;;;;;;19.33;10.57;;;0.40;99.90;;;;;;5036102;28;20472;-79
2023/12/22 09:53:00;;;;;;;27.90;13.27;;;0.30;99.90;;;;;;5034567;28;20018;-78
2023/12/22 09:55:26;;;;;;;25.52;10.77;;;0.30;99.90;;;;;;5034810;28;20083;-78
2023/12/22 09:57:53;;;;;;;19.90;10.38;;;0.30;99.90;;;;;;5035723;28;20021;-78
2023/12/22 10:00:20;;;;;;;50.08;21.73;;;0.30;99.90;;;;;;5034796;28;20018;-79
2023/12/22 10:02:45;;;;;;;34.67;14.10;;;0.30;99.90;;;;;;5034368;28;20009;-79
2023/12/22 10:05:14;;;;;;;27.65;13.88;;;0.30;99.90;;;;;;5035911;28;20101;-78
2023/12/22 10:07:45;;;;;;;29.25;12.45;;;0.30;99.90;;;;;;5035691;28;20026;-79
2023/12/22 10:10:12;;;;;;;37.53;18.10;;;0.40;99.90;;;;;;5035960;28;20036;-79
2023/12/22 10:12:39;;;;;;;31.90;15.00;;;0.30;99.90;;;;;;5034144;28;20033;-78
2023/12/22 10:15:07;;;;;;;30.38;13.77;;;0.40;99.90;;;;;;5034687;28;20482;-78
2023/12/22 10:17:33;;;;;;;33.58;15.65;;;0.40;99.90;;;;;;5035405;28;20028;-79
2023/12/22 10:19:59;;;;;;;31.98;13.50;;;0.50;99.90;;;;;;5035558;28;20535;-78
2023/12/22 10:22:24;;;;;;;41.53;17.05;;;0.50;99.90;;;;;;5033994;28;20026;-78
2023/12/22 10:24:53;;;;;;;43.05;17.17;;;0.70;99.90;;;;;;5035565;28;20032;-78
2023/12/22 10:27:22;;;;;;;36.90;17.25;;;0.80;99.90;;;;;;5033543;28;20018;-78
2023/12/22 10:29:49;;;;;;;38.45;17.50;;;0.90;99.90;;;;;;5035047;28;20108;-79
2023/12/22 10:32:16;;;;;;;35.03;16.65;;;0.90;99.90;;;;;;5034013;28;20060;-78
2023/12/22 10:34:42;;;;;;;38.55;19.65;;;1.00;99.90;;;;;;5033682;28;20026;-78
2023/12/22 10:37:09;;;;;;;27.58;15.27;;;1.00;99.90;;;;;;5034009;28;20112;-78
2023/12/22 10:39:37;;;;;;;34.25;18.67;;;1.10;99.90;;;;;;5034980;28;20033;-79
2023/12/22 10:42:03;;;;;;;20.23;11.98;;;1.10;99.90;;;;;;5033970;28;20063;-78
2023/12/22 10:44:29;;;;;;;19.95;8.95;;;1.20;99.90;;;;;;5033764;28;20395;-78
2023/12/22 10:46:56;;;;;;;19.33;9.63;;;1.20;99.90;;;;;;5033909;28;20378;-78
2023/12/22 10:49:22;;;;;;;13.82;8.48;;;1.30;99.90;;;;;;5033605;28;20877;-79
2023/12/22 10:51:49;;;;;;;18.20;8.70;;;1.40;99.90;;;;;;5033719;28;20025;-79
2023/12/22 10:54:15;;;;;;;17.73;6.80;;;1.40;99.90;;;;;;5033616;28;20025;-78
2023/12/22 10:56:41;;;;;;;9.13;4.25;;;1.50;99.90;;;;;;5033601;28;20037;-79
2023/12/22 10:59:08;;;;;;;10.63;4.53;;;1.50;99.90;;;;;;5034549;28;20486;-78
2023/12/22 11:01:38;;;;;;;10.95;3.15;;;1.40;99.90;;;;;;5033638;28;20052;-78
2023/12/22 11:04:06;;;;;;;3.47;2.30;;;1.10;99.90;;;;;;5034988;28;20095;-78
2023/12/22 11:06:37;;;;;;;4.60;2.10;;;0.80;99.90;;;;;;5033398;28;20021;-78
2023/12/22 11:09:10;;;;;;;11.98;4.43;;;0.70;99.90;;;;;;5033123;28;20053;-78
2023/12/22 11:11:37;;;;;;;3.92;1.88;;;0.70;99.90;;;;;;5033362;28;20076;-78
2023/12/22 11:14:04;;;;;;;3.92;2.50;;;0.80;99.90;;;;;;5033318;28;20024;-78
2023/12/22 11:16:35;;;;;;;7.93;4.75;;;0.80;99.90;;;;;;5034382;28;20065;-78
2023/12/22 11:19:02;;;;;;;25.08;11.27;;;0.70;99.90;;;;;;5034372;28;20032;-79
2023/12/22 11:21:28;;;;;;;13.40;6.28;;;0.70;99.90;;;;;;5033061;28;20145;-78
2023/12/22 11:23:55;;;;;;;8.25;4.97;;;0.60;99.90;;;;;;5034057;28;20026;-78
2023/12/22 11:26:22;;;;;;;8.00;5.78;;;0.60;99.90;;;;;;5034362;28;20029;-79
2023/12/22 11:28:50;;;;;;;21.88;7.97;;;0.60;99.90;;;;;;5032836;28;20391;-79
2023/12/22 11:31:17;;;;;;;15.88;5.82;;;0.60;99.90;;;;;;5032900;28;20025;-78
2023/12/22 11:33:50;;;;;;;9.77;4.88;;;0.60;99.90;;;;;;5033628;28;20021;-78
2023/12/22 11:36:17;;;;;;;2.70;2.30;;;0.70;99.90;;;;;;5032562;28;20179;-79
2023/12/22 11:38:44;;;;;;;31.83;11.60;;;0.70;99.90;;;;;;5032834;28;20021;-78
2023/12/22 11:41:15;;;;;;;19.15;6.93;;;0.70;99.90;;;;;;5032609;28;20044;-78
2023/12/22 11:43:42;;;;;;;14.63;6.30;;;0.70;99.90;;;;;;5034016;28;20021;-78
2023/12/22 11:46:08;;;;;;;9.82;7.82;;;0.80;99.90;;;;;;5033709;28;20052;-78
2023/12/22 11:48:34;;;;;;;7.28;3.83;;;0.80;99.90;;;;;;5032615;28;20018;-79
2023/12/22 11:51:00;;;;;;;6.35;4.10;;;0.90;99.90;;;;;;5027093;28;20036;-78
2023/12/22 11:53:32;;;;;;;13.57;6.78;;;1.00;99.90;;;;;;5033928;28;20395;-79
2023/12/22 11:56:08;;;;;;;29.87;12.83;;;1.00;99.90;;;;;;5029439;28;20041;-78
2023/12/22 11:58:51;;;;;;;15.48;5.90;;;1.00;99.90;;;;;;5032182;28;20356;-79
2023/12/22 12:01:18;;;;;;;16.15;6.75;;;1.10;99.90;;;;;;5032290;28;20541;-79
2023/12/22 12:03:51;;;;;;;16.88;9.07;;;1.10;99.90;;;;;;5033483;28;20026;-79
2023/12/22 12:06:26;;;;;;;33.88;11.50;;;1.10;99.90;;;;;;5041405;28;20394;-79
2023/12/22 12:08:56;;;;;;;19.25;7.25;;;1.20;99.90;;;;;;5028501;28;20033;-78
2023/12/22 12:11:23;;;;;;;19.30;9.40;;;1.20;99.90;;;;;;5033464;28;20108;-78
2023/12/22 12:13:50;;;;;;;24.98;7.72;;;1.20;99.90;;;;;;5031917;28;20391;-78
2023/12/22 12:16:23;;;;;;;12.57;4.18;;;1.20;99.90;;;;;;5032988;28;20108;-78
2023/12/22 12:18:50;;;;;;;32.58;16.00;;;1.40;99.90;;;;;;5028382;28;20487;-78
2023/12/22 12:21:16;;;;;;;29.58;10.48;;;1.40;99.90;;;;;;5031796;28;20104;-78
2023/12/22 12:23:42;;;;;;;23.00;8.55;;;1.50;99.90;;;;;;5031759;28;20018;-78
2023/12/22 12:26:08;;;;;;;7.45;2.97;;;1.60;99.90;;;;;;5033262;28;20104;-78
2023/12/22 12:28:36;;;;;;;26.80;11.40;;;1.70;99.90;;;;;;5031547;28;20029;-78
2023/12/22 12:31:06;;;;;;;29.83;9.05;;;1.80;99.90;;;;;;5048396;28;20025;-79
2023/12/22 12:33:32;;;;;;;34.20;10.20;;;1.80;99.90;;;;;;5029967;28;20150;-79
2023/12/22 12:35:59;;;;;;;40.85;18.42;;;1.70;99.90;;;;;;5033129;28;20538;-78
2023/12/22 12:38:43;;;;;;;54.90;15.85;;;1.70;99.90;;;;;;5031598;28;20060;-79
2023/12/22 12:41:13;;;;;;;40.80;11.38;;;1.70;99.90;;;;;;5031975;28;20054;-79
2023/12/22 12:43:43;;;;;;;39.90;17.80;;;1.70;99.90;;;;;;5033016;28;20429;-78
2023/12/22 12:46:09;;;;;;;64.65;25.88;;;1.70;99.90;;;;;;5032818;28;20033;-79
2023/12/22 12:48:34;;;;;;;17.67;8.93;;;1.80;99.90;;;;;;5031603;28;20104;-78